createdAt,value
2019-03-27T00:00:10.318Z,22.73
2019-03-27T00:02:39.100Z,21.17
2019-03-27T00:05:07.872Z,21.65
2019-03-27T00:07:36.744Z,23.00
2019-03-27T00:10:07.960Z,22.17
2019-03-27T00:12:37.754Z,24.40
2019-03-27T00:15:13.134Z,24.18
2019-03-27T00:17:40.549Z,23.40
2019-03-27T00:20:09.501Z,22.22
2019-03-27T00:22:38.374Z,24.07
2019-03-27T00:25:09.824Z,22.27
2019-03-27T00:27:38.593Z,22.60
2019-03-27T00:30:08.633Z,23.92
2019-03-27T00:32:37.446Z,23.92
2019-03-27T00:35:07.220Z,24.82
2019-03-27T00:37:36.062Z,26.77
2019-03-27T00:40:08.140Z,26.57
2019-03-27T00:42:36.920Z,22.98
2019-03-27T00:45:09.629Z,24.55
2019-03-27T00:47:38.474Z,24.83
2019-03-27T00:50:07.979Z,23.32
2019-03-27T00:52:36.787Z,23.12
2019-03-27T00:55:06.470Z,22.45
2019-03-27T00:57:35.251Z,25.75
2019-03-27T01:00:19.113Z,26.45
2019-03-27T01:02:47.883Z,29.35
2019-03-27T01:05:16.663Z,26.70
2019-03-27T01:07:45.458Z,26.40
2019-03-27T01:10:14.318Z,26.37
2019-03-27T01:12:43.091Z,25.52
2019-03-27T01:15:11.889Z,25.30
2019-03-27T01:17:40.725Z,26.40
2019-03-27T01:20:09.500Z,24.90
2019-03-27T01:22:38.299Z,25.70
2019-03-27T01:25:07.154Z,24.55
2019-03-27T01:27:35.982Z,24.60
2019-03-27T01:30:05.634Z,27.40
2019-03-27T01:32:34.412Z,28.92
2019-03-27T01:35:03.538Z,28.38
2019-03-27T01:37:32.333Z,26.85
2019-03-27T01:40:01.125Z,25.57
2019-03-27T01:42:29.907Z,24.50
2019-03-27T01:44:58.709Z,25.57
2019-03-27T01:47:27.473Z,24.18
2019-03-27T01:49:56.245Z,24.50
2019-03-27T01:52:25.039Z,24.20
2019-03-27T01:54:55.949Z,27.32
2019-03-27T01:57:25.113Z,25.32
2019-03-27T01:59:54.064Z,21.85
2019-03-27T02:02:22.904Z,26.00
2019-03-27T02:04:51.687Z,28.57
2019-03-27T02:07:20.498Z,27.87
2019-03-27T02:09:49.264Z,28.98
2019-03-27T02:12:18.033Z,26.40
2019-03-27T02:14:46.841Z,23.98
2019-03-27T02:17:15.710Z,23.67
2019-03-27T02:19:44.840Z,25.30
2019-03-27T02:22:13.934Z,26.50
2019-03-27T02:24:42.769Z,24.85
2019-03-27T02:27:11.546Z,27.50
2019-03-27T02:29:40.414Z,31.27
2019-03-27T02:32:09.183Z,29.32
2019-03-27T02:34:38.016Z,30.17
2019-03-27T02:37:07.208Z,30.20
2019-03-27T02:39:36.045Z,32.03
2019-03-27T02:42:04.914Z,31.30
2019-03-27T02:44:33.813Z,24.70
2019-03-27T02:47:02.659Z,28.87
2019-03-27T02:49:31.438Z,28.92
2019-03-27T02:52:00.530Z,26.57
2019-03-27T02:54:29.331Z,30.57
2019-03-27T02:56:58.170Z,28.60
2019-03-27T02:59:26.988Z,23.73
2019-03-27T03:01:55.838Z,27.45
2019-03-27T03:04:24.685Z,32.75
2019-03-27T03:06:53.510Z,35.68
2019-03-27T03:09:22.364Z,27.22
2019-03-27T03:11:51.466Z,27.82
2019-03-27T03:14:20.345Z,30.02
2019-03-27T03:16:49.116Z,29.77
2019-03-27T03:19:17.893Z,28.98
2019-03-27T03:21:46.861Z,25.00
2019-03-27T03:24:15.656Z,25.37
2019-03-27T03:26:44.511Z,28.40
2019-03-27T03:29:13.319Z,27.55
2019-03-27T03:31:42.398Z,28.50
2019-03-27T03:34:11.241Z,25.20
2019-03-27T03:36:40.143Z,25.62
2019-03-27T03:39:08.963Z,26.17
2019-03-27T03:41:37.755Z,27.10
2019-03-27T03:44:06.953Z,28.62
2019-03-27T03:46:36.058Z,23.98
2019-03-27T03:49:04.904Z,23.90
2019-03-27T03:51:34.044Z,21.40
2019-03-27T03:54:03.297Z,19.48
2019-03-27T03:56:32.586Z,19.98
2019-03-27T03:59:01.404Z,22.95
2019-03-27T04:01:30.241Z,24.72
2019-03-27T04:03:59.087Z,25.12
2019-03-27T04:06:27.885Z,23.50
2019-03-27T04:08:56.658Z,26.15
2019-03-27T04:11:25.437Z,29.45
2019-03-27T04:13:54.255Z,25.20
2019-03-27T04:16:23.106Z,24.67
2019-03-27T04:18:51.957Z,23.92
2019-03-27T04:21:21.744Z,24.50
2019-03-27T04:23:50.781Z,26.05
2019-03-27T04:26:19.873Z,22.83
2019-03-27T04:28:48.677Z,23.15
2019-03-27T04:31:17.445Z,24.50
2019-03-27T04:33:46.643Z,23.05
2019-03-27T04:36:15.517Z,23.57
2019-03-27T04:38:44.433Z,23.92
2019-03-27T04:41:13.318Z,24.90
2019-03-27T04:43:42.197Z,24.85
2019-03-27T04:46:11.308Z,22.62
2019-03-27T04:48:40.411Z,22.00
2019-03-27T04:51:09.196Z,23.35
2019-03-27T04:53:37.969Z,22.67
2019-03-27T04:56:06.749Z,23.87
2019-03-27T04:58:35.873Z,25.08
2019-03-27T05:01:04.653Z,23.42
2019-03-27T05:03:33.758Z,22.00
2019-03-27T05:06:02.564Z,23.15
2019-03-27T05:08:31.393Z,24.72
2019-03-27T05:11:00.164Z,24.32
2019-03-27T05:13:28.953Z,24.40
2019-03-27T05:15:57.885Z,25.52
2019-03-27T05:18:26.664Z,26.23
2019-03-27T05:20:55.564Z,23.67
2019-03-27T05:23:24.338Z,24.45
2019-03-27T05:25:53.191Z,24.05
2019-03-27T05:28:22.066Z,23.87
2019-03-27T05:30:50.855Z,24.05
2019-03-27T05:33:19.635Z,24.70
2019-03-27T05:35:48.756Z,27.02
2019-03-27T05:38:17.842Z,26.35
2019-03-27T05:40:46.650Z,26.23
2019-03-27T05:43:15.516Z,27.37
2019-03-27T05:45:44.306Z,28.02
2019-03-27T05:48:13.142Z,26.65
2019-03-27T05:50:42.296Z,27.73
2019-03-27T05:53:11.405Z,27.00
2019-03-27T05:55:40.179Z,28.10
2019-03-27T05:58:09.009Z,28.32
2019-03-27T06:00:37.846Z,25.08
2019-03-27T06:03:06.842Z,23.15
2019-03-27T06:05:35.662Z,21.60
2019-03-27T06:08:04.522Z,22.13
2019-03-27T06:10:33.373Z,20.95
2019-03-27T06:13:02.170Z,22.93
2019-03-27T06:15:30.946Z,23.18
2019-03-27T06:18:12.586Z,23.87
2019-03-27T06:20:30.629Z,24.35
2019-03-27T06:22:59.404Z,25.85
2019-03-27T06:25:28.153Z,25.68
2019-03-27T06:27:56.953Z,24.50
2019-03-27T06:30:26.128Z,26.12
2019-03-27T06:32:54.993Z,25.92
2019-03-27T06:35:23.873Z,24.75
2019-03-27T06:37:52.714Z,25.35
2019-03-27T06:40:21.486Z,24.67
2019-03-27T06:42:50.277Z,24.47
2019-03-27T06:45:19.056Z,24.45
2019-03-27T06:47:47.907Z,23.77
2019-03-27T06:50:17.152Z,25.02
2019-03-27T06:52:46.250Z,27.87
2019-03-27T06:55:15.100Z,28.02
2019-03-27T06:57:43.991Z,26.23
2019-03-27T07:00:13.133Z,24.00
2019-03-27T07:02:41.979Z,24.40
2019-03-27T07:05:10.773Z,22.80
2019-03-27T07:07:39.548Z,24.30
2019-03-27T07:10:08.327Z,23.85
2019-03-27T07:12:37.124Z,24.25
2019-03-27T07:15:06.286Z,24.55
2019-03-27T07:17:35.631Z,25.97
2019-03-27T07:20:06.269Z,24.12
2019-03-27T07:22:35.055Z,24.70
2019-03-27T07:25:06.566Z,24.90
2019-03-27T07:27:35.348Z,24.20
2019-03-27T07:30:05.186Z,24.15
2019-03-27T07:32:33.945Z,25.23
2019-03-27T07:35:02.812Z,24.87
2019-03-27T07:37:31.594Z,24.65
2019-03-27T07:40:00.737Z,24.05
2019-03-27T07:42:29.971Z,24.47
2019-03-27T07:44:58.738Z,23.67
2019-03-27T07:47:27.813Z,22.55
2019-03-27T07:49:56.609Z,23.83
2019-03-27T07:52:25.406Z,24.72
2019-03-27T07:54:54.218Z,21.55
2019-03-27T07:57:23.080Z,22.87
2019-03-27T07:59:52.268Z,23.10
2019-03-27T08:02:21.134Z,23.22
2019-03-27T08:04:49.930Z,22.60
2019-03-27T08:07:26.679Z,24.55
2019-03-27T08:09:49.252Z,20.95
2019-03-27T08:12:18.065Z,22.93
2019-03-27T08:14:46.941Z,20.50
2019-03-27T08:17:15.714Z,20.57
2019-03-27T08:19:44.518Z,21.25
2019-03-27T08:22:13.641Z,20.02
2019-03-27T08:24:42.419Z,20.40
2019-03-27T08:27:14.358Z,20.57
2019-03-27T08:29:41.690Z,20.12
2019-03-27T08:32:10.474Z,18.05
2019-03-27T08:34:39.285Z,17.75
2019-03-27T08:37:08.075Z,16.73
2019-03-27T08:39:36.916Z,17.82
2019-03-27T08:42:06.001Z,16.55
2019-03-27T08:44:34.771Z,15.95
2019-03-27T08:47:03.563Z,18.98
2019-03-27T08:49:32.438Z,16.93
2019-03-27T08:52:01.210Z,16.85
2019-03-27T08:54:29.984Z,15.63
2019-03-27T08:56:58.783Z,14.38
2019-03-27T08:59:27.633Z,13.40
2019-03-27T09:01:56.402Z,13.30
2019-03-27T09:04:25.545Z,12.90
2019-03-27T09:06:54.397Z,13.18
2019-03-27T09:09:23.181Z,12.70
2019-03-27T09:11:52.308Z,12.93
2019-03-27T09:14:21.173Z,13.32
2019-03-27T09:16:50.014Z,11.55
2019-03-27T09:19:18.818Z,11.48
2019-03-27T09:21:47.974Z,11.73
2019-03-27T09:24:16.741Z,9.90
2019-03-27T09:26:45.537Z,9.95
2019-03-27T09:29:14.322Z,9.25
2019-03-27T09:31:45.146Z,8.55
2019-03-27T09:34:13.585Z,9.38
2019-03-27T09:36:42.368Z,8.28
2019-03-27T09:39:11.218Z,9.88
2019-03-27T09:41:40.090Z,7.97
2019-03-27T09:44:08.858Z,7.72
2019-03-27T09:46:37.640Z,8.60
2019-03-27T09:49:06.448Z,6.70
2019-03-27T09:51:35.220Z,8.48
2019-03-27T09:54:04.067Z,6.67
2019-03-27T09:56:32.869Z,8.35
2019-03-27T09:59:02.277Z,7.90
2019-03-27T10:01:31.065Z,7.58
2019-03-27T10:04:00.276Z,7.58
2019-03-27T10:06:29.796Z,7.33
2019-03-27T10:08:58.882Z,6.53
2019-03-27T10:11:27.987Z,7.22
2019-03-27T10:13:56.826Z,7.53
2019-03-27T10:16:25.596Z,6.63
2019-03-27T10:18:54.466Z,5.70
2019-03-27T10:21:23.238Z,5.60
2019-03-27T10:23:52.017Z,5.05
2019-03-27T10:26:20.829Z,5.37
2019-03-27T10:28:49.596Z,5.45
2019-03-27T10:31:18.375Z,4.83
2019-03-27T10:33:47.191Z,4.87
2019-03-27T10:36:16.029Z,4.87
2019-03-27T10:38:44.819Z,4.70
2019-03-27T10:41:13.697Z,4.77
2019-03-27T10:43:42.548Z,5.28
2019-03-27T10:46:11.325Z,5.47
2019-03-27T10:48:51.884Z,4.97
2019-03-27T10:51:10.617Z,5.03
2019-03-27T10:53:39.386Z,3.80
2019-03-27T10:56:08.183Z,3.42
2019-03-27T10:58:36.970Z,3.05
2019-03-27T11:01:07.457Z,2.60
2019-03-27T11:03:36.568Z,2.80
2019-03-27T11:06:05.849Z,2.90
2019-03-27T11:08:34.626Z,3.75
2019-03-27T11:11:03.491Z,3.33
2019-03-27T11:13:34.375Z,3.62
2019-03-27T11:16:02.799Z,4.17
2019-03-27T11:18:31.602Z,4.25
2019-03-27T11:21:00.381Z,4.20
2019-03-27T11:23:29.155Z,4.05
2019-03-27T11:25:57.953Z,3.87
2019-03-27T11:28:26.734Z,4.12
2019-03-27T11:30:55.510Z,3.87
2019-03-27T11:33:24.319Z,4.30
2019-03-27T11:35:53.179Z,4.10
2019-03-27T11:38:22.024Z,4.10
2019-03-27T11:40:50.845Z,4.08
2019-03-27T11:43:19.694Z,4.10
2019-03-27T11:45:48.921Z,3.12
2019-03-27T11:48:18.018Z,3.50
2019-03-27T11:50:46.862Z,3.52
2019-03-27T11:53:15.647Z,3.87
2019-03-27T11:55:44.450Z,3.30
2019-03-27T11:58:14.910Z,3.67
2019-03-27T12:00:54.380Z,3.90
2019-03-27T12:03:14.430Z,3.42
2019-03-27T12:05:45.580Z,3.08
2019-03-27T12:08:13.684Z,4.22
2019-03-27T12:10:42.484Z,3.25
2019-03-27T12:13:11.262Z,3.33
2019-03-27T12:15:40.771Z,3.25
2019-03-27T12:18:10.791Z,14.30
2019-03-27T12:20:39.639Z,7.58
2019-03-27T12:23:08.483Z,17.95
2019-03-27T12:25:37.289Z,5.53
2019-03-27T12:28:06.350Z,8.75
2019-03-27T12:30:35.197Z,2.90
2019-03-27T12:33:04.076Z,36.63
2019-03-27T12:35:32.852Z,5.92
2019-03-27T12:38:04.258Z,3.42
2019-03-27T12:40:32.183Z,10.18
2019-03-27T12:43:00.963Z,16.50
2019-03-27T12:45:30.056Z,4.42
2019-03-27T12:47:58.943Z,4.10
2019-03-27T12:50:27.731Z,12.68
2019-03-27T12:52:56.833Z,11.40
2019-03-27T12:55:25.694Z,3.70
2019-03-27T12:57:54.542Z,3.00
2019-03-27T13:00:23.308Z,3.75
2019-03-27T13:02:52.124Z,4.17
2019-03-27T13:05:20.899Z,3.35
2019-03-27T13:07:50.467Z,3.27
2019-03-27T13:10:19.430Z,3.35
2019-03-27T13:12:48.204Z,3.30
2019-03-27T13:15:17.065Z,2.80
2019-03-27T13:17:45.939Z,2.52
2019-03-27T13:20:14.779Z,3.92
2019-03-27T13:22:43.620Z,2.87
2019-03-27T13:25:12.479Z,2.65
2019-03-27T13:27:41.280Z,2.92
2019-03-27T13:30:10.114Z,2.50
2019-03-27T13:32:38.915Z,2.58
2019-03-27T13:35:07.837Z,2.33
2019-03-27T13:37:36.607Z,2.70
2019-03-27T13:40:08.536Z,2.30
2019-03-27T13:42:37.299Z,2.50
2019-03-27T13:45:06.777Z,2.20
2019-03-27T13:47:35.756Z,2.67
2019-03-27T13:50:07.350Z,2.67
2019-03-27T13:52:36.194Z,2.85
2019-03-27T13:55:06.992Z,2.62
2019-03-27T13:57:36.413Z,2.80
2019-03-27T14:00:08.798Z,5.90
2019-03-27T14:02:37.980Z,8.47
2019-03-27T14:05:06.831Z,14.45
2019-03-27T14:07:35.973Z,4.70
2019-03-27T14:10:07.517Z,5.72
2019-03-27T14:12:36.387Z,16.73
2019-03-27T14:15:08.074Z,4.17
2019-03-27T14:17:37.027Z,3.22
2019-03-27T14:20:07.590Z,15.30
2019-03-27T14:22:36.811Z,27.45
2019-03-27T14:25:08.862Z,13.93
2019-03-27T14:27:37.709Z,5.33
2019-03-27T14:30:08.917Z,6.22
2019-03-27T14:32:37.725Z,3.05
2019-03-27T14:35:06.672Z,3.72
2019-03-27T14:37:35.519Z,18.42
2019-03-27T14:40:07.383Z,18.45
2019-03-27T14:42:36.261Z,11.00
2019-03-27T14:45:07.232Z,3.40
2019-03-27T14:47:36.686Z,9.65
2019-03-27T14:50:07.679Z,20.68
2019-03-27T14:52:36.447Z,6.78
2019-03-27T14:55:07.192Z,8.03
2019-03-27T14:57:36.838Z,3.20
2019-03-27T15:00:09.622Z,5.72
2019-03-27T15:02:38.512Z,19.43
2019-03-27T15:05:08.043Z,20.08
2019-03-27T15:07:36.829Z,12.35
2019-03-27T15:10:09.132Z,7.28
2019-03-27T15:12:37.919Z,4.20
2019-03-27T15:15:08.393Z,8.53
2019-03-27T15:17:37.634Z,3.77
2019-03-27T15:20:08.098Z,6.08
2019-03-27T15:22:36.868Z,15.48
2019-03-27T15:25:08.049Z,12.07
2019-03-27T15:27:36.869Z,9.95
2019-03-27T15:30:06.621Z,8.60
2019-03-27T15:32:36.651Z,4.70
2019-03-27T15:35:05.524Z,3.98
2019-03-27T15:37:35.169Z,19.48
2019-03-27T15:40:05.451Z,11.20
2019-03-27T15:42:34.431Z,7.62
2019-03-27T15:45:05.896Z,11.38
2019-03-27T15:47:34.768Z,4.35
2019-03-27T15:50:04.889Z,4.15
2019-03-27T15:52:36.639Z,7.75
2019-03-27T15:55:04.620Z,8.50
2019-03-27T15:57:34.282Z,11.40
2019-03-27T16:00:04.695Z,46.08
2019-03-27T16:02:33.488Z,11.93
2019-03-27T16:05:02.532Z,62.85
2019-03-27T16:07:31.646Z,4.65
2019-03-27T16:10:00.501Z,5.28
2019-03-27T16:12:29.288Z,4.67
2019-03-27T16:14:58.106Z,7.45
2019-03-27T16:17:26.939Z,6.00
2019-03-27T16:19:55.798Z,4.75
2019-03-27T16:22:24.904Z,5.72
2019-03-27T16:24:53.717Z,4.33
2019-03-27T16:27:22.568Z,5.08
2019-03-27T16:29:51.411Z,5.37
2019-03-27T16:32:20.273Z,4.08
2019-03-27T16:34:49.064Z,3.58
2019-03-27T16:37:17.902Z,5.42
2019-03-27T16:39:46.782Z,6.92
2019-03-27T16:42:15.587Z,5.92
2019-03-27T16:44:44.424Z,4.22
2019-03-27T16:47:13.519Z,3.80
2019-03-27T16:49:42.366Z,3.30
2019-03-27T16:52:11.269Z,3.35
2019-03-27T16:54:40.057Z,4.58
2019-03-27T16:57:08.852Z,3.92
2019-03-27T16:59:37.624Z,6.12
2019-03-27T17:02:06.914Z,4.72
2019-03-27T17:04:35.693Z,5.15
2019-03-27T17:07:04.495Z,11.12
2019-03-27T17:09:33.385Z,4.97
2019-03-27T17:12:02.174Z,4.10
2019-03-27T17:14:31.030Z,4.12
2019-03-27T17:16:59.902Z,6.35
2019-03-27T17:19:28.700Z,5.53
2019-03-27T17:21:57.494Z,5.90
2019-03-27T17:24:26.383Z,5.20
2019-03-27T17:26:55.223Z,5.58
2019-03-27T17:29:24.076Z,5.05
2019-03-27T17:31:52.953Z,5.40
2019-03-27T17:34:21.812Z,5.28
2019-03-27T17:36:50.632Z,6.12
2019-03-27T17:39:19.485Z,6.50
2019-03-27T17:41:48.273Z,5.85
2019-03-27T17:44:17.123Z,7.62
2019-03-27T17:46:45.951Z,7.37
2019-03-27T17:49:14.789Z,5.87
2019-03-27T17:51:43.574Z,6.00
2019-03-27T17:54:20.557Z,5.75
2019-03-27T17:56:43.639Z,6.30
2019-03-27T17:59:13.600Z,5.00
2019-03-27T18:01:43.053Z,5.03
2019-03-27T18:04:12.310Z,4.90
2019-03-27T18:06:41.077Z,4.80
2019-03-27T18:09:09.977Z,4.62
2019-03-27T18:11:38.814Z,4.67
2019-03-27T18:14:07.586Z,4.62
2019-03-27T18:16:36.410Z,4.28
2019-03-27T18:19:05.263Z,4.15
2019-03-27T18:21:34.119Z,4.10
2019-03-27T18:24:02.996Z,4.17
2019-03-27T18:26:31.980Z,3.95
2019-03-27T18:29:00.841Z,3.90
2019-03-27T18:31:29.728Z,4.85
2019-03-27T18:33:58.577Z,5.72
2019-03-27T18:36:27.630Z,7.03
2019-03-27T18:38:56.477Z,6.35
2019-03-27T18:41:25.356Z,7.80
2019-03-27T18:43:54.520Z,6.30
2019-03-27T18:46:23.428Z,6.43
2019-03-27T18:48:52.389Z,6.87
2019-03-27T18:51:21.225Z,7.00
2019-03-27T18:53:59.603Z,6.92
2019-03-27T18:56:20.532Z,7.87
2019-03-27T18:58:49.615Z,8.78
2019-03-27T19:01:18.510Z,8.60
2019-03-27T19:03:47.294Z,8.20
2019-03-27T19:06:16.149Z,7.80
2019-03-27T19:08:44.944Z,8.15
2019-03-27T19:11:13.723Z,9.17
2019-03-27T19:13:42.517Z,8.78
2019-03-27T19:16:11.333Z,8.58
2019-03-27T19:18:40.196Z,8.15
2019-03-27T19:21:08.987Z,7.60
2019-03-27T19:23:37.843Z,9.13
2019-03-27T19:26:06.899Z,9.38
2019-03-27T19:28:35.991Z,9.38
2019-03-27T19:31:04.972Z,11.28
2019-03-27T19:33:33.820Z,8.63
2019-03-27T19:36:02.605Z,9.55
2019-03-27T19:38:31.784Z,8.80
2019-03-27T19:41:00.620Z,8.65
2019-03-27T19:43:29.480Z,8.80
2019-03-27T19:45:58.369Z,8.53
2019-03-27T19:48:27.140Z,9.15
2019-03-27T19:50:55.930Z,8.35
2019-03-27T19:53:24.723Z,7.35
2019-03-27T19:55:53.498Z,8.38
2019-03-27T19:58:22.267Z,7.92
2019-03-27T20:00:51.163Z,7.72
2019-03-27T20:03:20.005Z,7.37
2019-03-27T20:05:49.103Z,7.67
2019-03-27T20:08:17.916Z,7.03
2019-03-27T20:10:46.702Z,7.62
2019-03-27T20:13:15.662Z,6.92
2019-03-27T20:15:44.555Z,7.58
2019-03-27T20:18:13.399Z,8.10
2019-03-27T20:20:42.565Z,7.30
2019-03-27T20:23:15.150Z,7.33
2019-03-27T20:25:41.912Z,7.22
2019-03-27T20:28:10.763Z,7.25
2019-03-27T20:30:39.594Z,7.50
2019-03-27T20:33:08.443Z,7.53
2019-03-27T20:35:37.222Z,7.85
2019-03-27T20:38:06.096Z,7.22
2019-03-27T20:40:34.935Z,7.87
2019-03-27T20:43:03.701Z,8.15
2019-03-27T20:45:32.494Z,8.33
2019-03-27T20:48:01.371Z,9.38
2019-03-27T20:50:30.143Z,9.40
2019-03-27T20:52:59.042Z,9.55
2019-03-27T20:55:30.450Z,10.43
2019-03-27T20:57:58.308Z,10.00
2019-03-27T21:00:27.188Z,9.53
2019-03-27T21:02:56.029Z,15.53
2019-03-27T21:05:24.812Z,29.48
2019-03-27T21:07:53.629Z,35.03
2019-03-27T21:10:22.402Z,33.15
2019-03-27T21:12:51.179Z,37.90
2019-03-27T21:15:20.071Z,39.27
2019-03-27T21:17:48.866Z,28.32
2019-03-27T21:20:17.711Z,19.80
2019-03-27T21:22:46.519Z,13.45
2019-03-27T21:25:15.360Z,11.05
2019-03-27T21:27:44.149Z,11.03
2019-03-27T21:30:12.987Z,11.12
2019-03-27T21:32:41.899Z,12.43
2019-03-27T21:35:10.852Z,11.03
2019-03-27T21:37:40.187Z,11.65
2019-03-27T21:40:09.166Z,11.15
2019-03-27T21:42:38.065Z,11.22
2019-03-27T21:45:08.940Z,10.58
2019-03-27T21:47:37.840Z,10.55
2019-03-27T21:50:07.925Z,11.55
2019-03-27T21:52:36.845Z,10.53
2019-03-27T21:55:06.835Z,10.35
2019-03-27T21:57:35.745Z,11.30
2019-03-27T22:00:05.983Z,11.55
2019-03-27T22:02:34.886Z,11.25
2019-03-27T22:05:04.529Z,11.85
2019-03-27T22:07:33.763Z,12.15
2019-03-27T22:10:02.961Z,11.73
2019-03-27T22:12:31.858Z,12.05
2019-03-27T22:15:00.793Z,12.10
2019-03-27T22:17:29.697Z,12.45
2019-03-27T22:19:58.594Z,12.47
2019-03-27T22:22:27.524Z,12.75
2019-03-27T22:24:56.716Z,13.65
2019-03-27T22:27:25.915Z,13.43
2019-03-27T22:29:54.923Z,13.30
2019-03-27T22:32:23.834Z,14.05
2019-03-27T22:34:52.756Z,13.78
2019-03-27T22:37:21.702Z,12.75
2019-03-27T22:39:50.619Z,13.03
2019-03-27T22:42:19.519Z,13.75
2019-03-27T22:44:48.447Z,13.20
2019-03-27T22:47:17.671Z,13.20
2019-03-27T22:49:46.590Z,13.80
2019-03-27T22:52:15.513Z,13.08
2019-03-27T22:54:44.457Z,13.38
2019-03-27T22:57:13.365Z,12.70
2019-03-27T22:59:42.308Z,14.18
2019-03-27T23:02:11.215Z,13.25
2019-03-27T23:04:40.442Z,13.90
2019-03-27T23:07:09.368Z,13.15
2019-03-27T23:09:38.623Z,13.58
2019-03-27T23:12:07.818Z,13.30
2019-03-27T23:14:36.778Z,13.48
2019-03-27T23:17:05.688Z,13.93
2019-03-27T23:19:34.582Z,13.65
2019-03-27T23:22:03.523Z,14.33
2019-03-27T23:24:32.418Z,14.03
2019-03-27T23:27:01.315Z,14.38
2019-03-27T23:29:30.247Z,14.23
2019-03-27T23:31:59.141Z,13.68
2019-03-27T23:34:28.033Z,14.33
2019-03-27T23:36:56.978Z,14.15
2019-03-27T23:39:25.932Z,13.80
2019-03-27T23:41:54.825Z,13.22
2019-03-27T23:44:24.053Z,14.53
2019-03-27T23:46:53.023Z,14.25
2019-03-27T23:49:21.937Z,14.53
2019-03-27T23:51:50.873Z,14.75
2019-03-27T23:54:19.786Z,13.30
2019-03-27T23:56:48.765Z,14.03
2019-03-27T23:59:18.060Z,14.40
